createdAt,value
2024-01-19T00:01:13.694Z,84
2024-01-19T00:03:13.499Z,84
2024-01-19T00:05:13.620Z,84
2024-01-19T00:07:13.454Z,84
2024-01-19T00:09:13.467Z,84
2024-01-19T00:11:13.569Z,84
2024-01-19T00:15:13.472Z,84
2024-01-19T00:17:13.502Z,84
2024-01-19T00:19:13.617Z,84
2024-01-19T00:21:13.527Z,84
2024-01-19T00:23:13.502Z,84
2024-01-19T00:25:13.466Z,84
2024-01-19T00:27:13.461Z,84
2024-01-19T00:29:13.484Z,84
2024-01-19T00:31:13.474Z,84
2024-01-19T00:35:15.391Z,84
2024-01-19T00:37:13.550Z,84
2024-01-19T00:39:13.512Z,85
2024-01-19T00:41:13.529Z,85
2024-01-19T00:43:13.521Z,85
2024-01-19T00:45:13.501Z,85
2024-01-19T00:47:13.596Z,85
2024-01-19T00:49:13.606Z,85
2024-01-19T00:51:13.521Z,85
2024-01-19T00:53:13.523Z,85
2024-01-19T00:55:13.534Z,85
2024-01-19T00:57:13.472Z,85
2024-01-19T00:59:13.641Z,85
2024-01-19T01:01:13.595Z,85
2024-01-19T01:03:13.515Z,85
2024-01-19T01:05:13.800Z,85
2024-01-19T01:07:13.644Z,85
2024-01-19T01:09:13.641Z,85
2024-01-19T01:13:13.769Z,85
2024-01-19T01:15:15.398Z,85
2024-01-19T01:19:13.537Z,85
2024-01-19T01:21:13.545Z,85
2024-01-19T01:23:13.923Z,85
2024-01-19T01:25:13.890Z,85
2024-01-19T01:27:13.800Z,86
2024-01-19T01:29:13.503Z,86
2024-01-19T01:31:13.488Z,86
2024-01-19T01:33:13.677Z,86
2024-01-19T01:35:13.665Z,86
2024-01-19T01:37:13.468Z,86
2024-01-19T01:41:13.674Z,86
2024-01-19T01:43:13.516Z,86
2024-01-19T01:45:13.562Z,86
2024-01-19T01:47:13.595Z,86
2024-01-19T01:49:13.790Z,86
2024-01-19T01:51:13.544Z,86
2024-01-19T01:53:13.556Z,86
2024-01-19T01:55:13.870Z,86
2024-01-19T01:57:13.552Z,86
2024-01-19T01:59:14.013Z,86
2024-01-19T02:01:13.506Z,86
2024-01-19T02:05:13.590Z,86
2024-01-19T02:07:13.953Z,86
2024-01-19T02:09:13.560Z,86
2024-01-19T02:11:13.547Z,86
2024-01-19T02:15:13.512Z,86
2024-01-19T02:17:13.688Z,86
2024-01-19T02:19:13.684Z,86
2024-01-19T02:21:13.530Z,86
2024-01-19T02:23:13.505Z,86
2024-01-19T02:25:13.492Z,86
2024-01-19T02:27:13.577Z,86
2024-01-19T02:31:13.575Z,86
2024-01-19T02:35:13.599Z,86
2024-01-19T02:37:13.649Z,86
2024-01-19T02:39:13.647Z,85
2024-01-19T02:41:13.619Z,85
2024-01-19T02:43:13.650Z,85
2024-01-19T02:47:13.577Z,85
2024-01-19T02:49:13.823Z,85
2024-01-19T02:51:13.572Z,85
2024-01-19T02:53:13.692Z,85
2024-01-19T02:55:13.512Z,85
2024-01-19T02:57:13.596Z,85
2024-01-19T02:59:13.672Z,85
2024-01-19T03:01:13.559Z,86
2024-01-19T03:03:13.641Z,86
2024-01-19T03:05:13.571Z,86
2024-01-19T03:07:13.500Z,86
2024-01-19T03:09:13.666Z,86
2024-01-19T03:11:13.620Z,86
2024-01-19T03:13:13.541Z,86
2024-01-19T03:15:13.505Z,86
2024-01-19T03:17:13.532Z,86
2024-01-19T03:19:13.642Z,86
2024-01-19T03:21:13.757Z,86
2024-01-19T03:23:13.562Z,86
2024-01-19T03:25:13.632Z,86
2024-01-19T03:27:13.547Z,86
2024-01-19T03:29:13.576Z,86
2024-01-19T03:33:13.667Z,86
2024-01-19T03:35:13.523Z,86
2024-01-19T03:37:13.514Z,86
2024-01-19T03:39:13.533Z,86
2024-01-19T03:41:13.667Z,86
2024-01-19T03:43:13.620Z,86
2024-01-19T03:45:13.540Z,86
2024-01-19T03:47:13.479Z,86
2024-01-19T03:49:13.576Z,86
2024-01-19T03:51:13.541Z,86
2024-01-19T03:53:13.505Z,86
2024-01-19T03:55:13.885Z,86
2024-01-19T03:57:13.572Z,86
2024-01-19T04:01:13.554Z,86
2024-01-19T04:03:13.658Z,86
2024-01-19T04:07:13.612Z,86
2024-01-19T04:09:13.527Z,85
2024-01-19T04:13:13.586Z,85
2024-01-19T04:15:13.534Z,85
2024-01-19T04:17:13.558Z,86
2024-01-19T04:19:13.676Z,85
2024-01-19T04:21:13.646Z,85
2024-01-19T04:25:13.512Z,85
2024-01-19T04:27:13.524Z,85
2024-01-19T04:29:13.540Z,85
2024-01-19T04:31:13.650Z,85
2024-01-19T04:33:13.688Z,85
2024-01-19T04:35:13.540Z,85
2024-01-19T04:37:13.528Z,85
2024-01-19T04:39:13.568Z,85
2024-01-19T04:41:13.501Z,85
2024-01-19T04:43:13.593Z,85
2024-01-19T04:45:13.520Z,86
2024-01-19T04:49:13.691Z,86
2024-01-19T04:51:13.634Z,86
2024-01-19T04:53:13.599Z,86
2024-01-19T04:55:13.568Z,86
2024-01-19T04:57:13.536Z,85
2024-01-19T04:59:13.567Z,85
2024-01-19T05:01:13.664Z,85
2024-01-19T05:03:13.611Z,85
2024-01-19T05:05:13.615Z,85
2024-01-19T05:09:13.618Z,85
2024-01-19T05:11:13.592Z,85
2024-01-19T05:13:13.565Z,85
2024-01-19T05:15:13.556Z,85
2024-01-19T05:17:13.566Z,84
2024-01-19T05:21:13.531Z,85
2024-01-19T05:23:13.546Z,85
2024-01-19T05:27:13.553Z,85
2024-01-19T05:29:13.602Z,85
2024-01-19T05:31:13.650Z,85
2024-01-19T05:33:13.737Z,85
2024-01-19T05:35:13.582Z,85
2024-01-19T05:37:13.562Z,85
2024-01-19T05:39:13.574Z,85
2024-01-19T05:41:13.546Z,85
2024-01-19T05:43:13.663Z,85
2024-01-19T05:45:13.619Z,86
2024-01-19T05:47:13.481Z,85
2024-01-19T05:49:13.553Z,85
2024-01-19T05:51:13.539Z,85
2024-01-19T05:53:13.498Z,85
2024-01-19T05:55:13.556Z,85
2024-01-19T05:57:13.661Z,85
2024-01-19T05:59:13.571Z,85
2024-01-19T06:01:13.524Z,85
2024-01-19T06:03:13.611Z,85
2024-01-19T06:07:13.637Z,85
2024-01-19T06:09:13.504Z,85
2024-01-19T06:11:13.688Z,85
2024-01-19T06:13:13.613Z,85
2024-01-19T06:15:13.669Z,85
2024-01-19T06:17:13.733Z,85
2024-01-19T06:19:13.722Z,85
2024-01-19T06:21:13.558Z,85
2024-01-19T06:23:13.511Z,85
2024-01-19T06:25:13.507Z,85
2024-01-19T06:27:13.505Z,85
2024-01-19T06:29:13.631Z,85
2024-01-19T06:31:13.559Z,85
2024-01-19T06:33:13.826Z,85
2024-01-19T06:35:13.581Z,85
2024-01-19T06:37:13.696Z,85
2024-01-19T06:39:13.590Z,85
2024-01-19T06:41:13.694Z,85
2024-01-19T06:43:13.559Z,85
2024-01-19T06:45:13.550Z,85
2024-01-19T06:47:13.655Z,85
2024-01-19T06:49:13.770Z,85
2024-01-19T06:51:13.533Z,85
2024-01-19T06:53:13.563Z,85
2024-01-19T06:55:13.589Z,84
2024-01-19T06:57:13.581Z,84
2024-01-19T07:05:13.574Z,84
2024-01-19T07:07:13.613Z,84
2024-01-19T07:09:13.615Z,84
2024-01-19T07:11:13.590Z,84
2024-01-19T07:13:13.576Z,84
2024-01-19T07:15:13.589Z,84
2024-01-19T07:17:15.360Z,84
2024-01-19T07:19:13.892Z,84
2024-01-19T07:21:13.638Z,84
2024-01-19T07:23:13.530Z,84
2024-01-19T07:25:13.588Z,84
2024-01-19T07:27:13.626Z,84
2024-01-19T07:29:13.570Z,84
2024-01-19T07:31:13.550Z,84
2024-01-19T07:33:16.461Z,83
2024-01-19T07:35:13.941Z,84
2024-01-19T07:37:13.605Z,84
2024-01-19T07:39:13.485Z,83
2024-01-19T07:41:13.808Z,83
2024-01-19T07:43:13.612Z,83
2024-01-19T07:45:13.688Z,83
2024-01-19T07:47:15.685Z,83
2024-01-19T07:49:13.541Z,83
2024-01-19T07:51:13.558Z,83
2024-01-19T07:53:13.627Z,83
2024-01-19T07:55:13.555Z,83
2024-01-19T07:57:13.540Z,83
2024-01-19T07:59:45.632Z,83
2024-01-19T08:01:02.596Z,83
2024-01-19T08:03:02.243Z,83
2024-01-19T08:05:01.990Z,83
2024-01-19T08:07:02.254Z,83
2024-01-19T08:09:02.264Z,83
2024-01-19T08:11:02.021Z,83
2024-01-19T08:13:02.315Z,83
2024-01-19T08:15:02.148Z,83
2024-01-19T08:17:02.173Z,83
2024-01-19T08:19:02.246Z,83
2024-01-19T08:21:02.211Z,83
2024-01-19T08:23:02.145Z,83
2024-01-19T08:25:02.122Z,83
2024-01-19T08:27:02.410Z,83
2024-01-19T08:29:02.037Z,83
2024-01-19T08:31:02.049Z,82
2024-01-19T08:35:02.224Z,83
2024-01-19T08:37:02.050Z,83
2024-01-19T08:39:02.145Z,83
2024-01-19T08:41:02.389Z,83
2024-01-19T08:43:04.029Z,82
2024-01-19T08:45:02.116Z,82
2024-01-19T08:47:02.157Z,82
2024-01-19T08:49:02.182Z,82
2024-01-19T08:51:02.354Z,82
2024-01-19T08:53:01.987Z,82
2024-01-19T08:55:02.190Z,82
2024-01-19T08:57:03.759Z,82
2024-01-19T08:59:02.140Z,82
2024-01-19T09:01:02.168Z,82
2024-01-19T09:03:03.813Z,82
2024-01-19T09:05:02.705Z,82
2024-01-19T09:07:02.193Z,82
2024-01-19T09:09:02.273Z,82
2024-01-19T09:11:02.286Z,81
2024-01-19T09:13:02.390Z,82
2024-01-19T09:15:02.467Z,82
2024-01-19T09:17:02.266Z,82
2024-01-19T09:19:02.962Z,81
2024-01-19T09:21:02.157Z,82
2024-01-19T09:23:02.005Z,82
2024-01-19T09:25:02.432Z,82
2024-01-19T09:26:09.820Z,82
2024-01-19T09:28:10.373Z,82
2024-01-19T09:32:09.945Z,82
2024-01-19T09:38:09.916Z,82
2024-01-19T09:42:09.893Z,80
2024-01-19T09:48:09.870Z,79
2024-01-19T09:50:09.802Z,79
2024-01-19T09:52:10.278Z,79
2024-01-19T09:54:10.359Z,79
2024-01-19T09:56:19.588Z,78
2024-01-19T09:57:21.597Z,78
2024-01-19T09:59:21.569Z,78
2024-01-19T10:01:21.568Z,78
2024-01-19T10:03:21.553Z,78
2024-01-19T10:05:21.533Z,77
2024-01-19T10:06:49.912Z,77
2024-01-19T10:08:33.371Z,76
2024-01-19T10:10:33.382Z,68
2024-01-19T10:12:51.738Z,67
2024-01-19T10:16:51.791Z,68
2024-01-19T10:18:51.802Z,68
2024-01-19T10:20:51.934Z,67
2024-01-19T10:27:29.321Z,68
2024-01-19T10:29:29.354Z,71
2024-01-19T10:31:29.336Z,67
2024-01-19T10:33:29.445Z,67
2024-01-19T10:35:29.368Z,67
2024-01-19T10:37:29.644Z,67
2024-01-19T10:43:29.846Z,65
2024-01-19T10:45:29.362Z,66
2024-01-19T10:47:29.426Z,65
2024-01-19T10:49:29.389Z,65
2024-01-19T10:53:29.339Z,66
2024-01-19T10:55:29.412Z,65
2024-01-19T10:57:29.318Z,65
2024-01-19T10:59:29.394Z,66
2024-01-19T11:01:29.411Z,66
2024-01-19T11:03:29.382Z,66
2024-01-19T11:05:29.318Z,69
2024-01-19T11:09:29.337Z,66
2024-01-19T11:11:29.711Z,66
2024-01-19T11:13:29.333Z,96
2024-01-19T11:19:29.530Z,66
2024-01-19T11:21:29.322Z,67
2024-01-19T11:23:29.388Z,66
2024-01-19T11:25:29.334Z,65
2024-01-19T11:27:29.836Z,65
2024-01-19T11:31:29.349Z,91
2024-01-19T11:35:29.403Z,100
2024-01-19T11:37:29.780Z,64
2024-01-19T11:39:29.365Z,64
2024-01-19T11:41:29.344Z,64
2024-01-19T11:43:29.338Z,64
2024-01-19T11:47:29.474Z,64
2024-01-19T11:53:29.359Z,64
2024-01-19T11:57:29.332Z,63
2024-01-19T11:59:29.348Z,63
2024-01-19T12:01:29.518Z,100
2024-01-19T12:03:29.343Z,63
2024-01-19T12:05:29.306Z,63
2024-01-19T12:07:29.438Z,63
2024-01-19T12:09:29.336Z,63
2024-01-19T12:11:29.359Z,63
2024-01-19T12:17:29.356Z,63
2024-01-19T12:19:29.941Z,62
2024-01-19T12:23:29.339Z,62
2024-01-19T12:25:29.801Z,61
2024-01-19T12:27:30.894Z,61
2024-01-19T12:29:29.389Z,62
2024-01-19T12:31:29.601Z,90
2024-01-19T12:33:29.363Z,61
2024-01-19T12:35:29.318Z,90
2024-01-19T12:37:29.352Z,61
2024-01-19T12:39:29.349Z,61
2024-01-19T12:41:29.364Z,61
2024-01-19T12:43:29.377Z,60
2024-01-19T12:45:29.832Z,91
2024-01-19T12:47:29.400Z,60
2024-01-19T12:51:29.373Z,61
2024-01-19T12:57:29.327Z,60
2024-01-19T13:03:29.372Z,58
2024-01-19T13:05:29.509Z,60
2024-01-19T13:07:29.760Z,59
2024-01-19T13:09:30.033Z,92
2024-01-19T13:11:29.357Z,59
2024-01-19T13:13:29.359Z,58
2024-01-19T13:15:30.046Z,58
2024-01-19T13:17:29.365Z,58
2024-01-19T13:19:29.317Z,92
2024-01-19T13:21:29.866Z,94
2024-01-19T13:23:29.358Z,58
2024-01-19T13:25:29.348Z,58
2024-01-19T13:27:29.330Z,58
2024-01-19T13:29:29.445Z,93
2024-01-19T13:31:30.026Z,92
2024-01-19T13:33:29.572Z,93
2024-01-19T13:35:29.384Z,58
2024-01-19T13:37:29.781Z,92
2024-01-19T13:39:29.397Z,58
2024-01-19T13:41:29.341Z,92
2024-01-19T13:43:29.681Z,58
2024-01-19T13:45:29.368Z,58
2024-01-19T13:47:29.363Z,96
2024-01-19T13:49:29.430Z,58
2024-01-19T13:51:29.329Z,58
2024-01-19T13:57:29.334Z,60
2024-01-19T13:59:29.348Z,62
2024-01-19T14:01:29.392Z,58
2024-01-19T14:03:29.373Z,59
2024-01-19T14:05:29.369Z,59
2024-01-19T14:07:29.760Z,59
2024-01-19T14:09:29.351Z,58
2024-01-19T14:11:29.348Z,100
2024-01-19T14:15:31.690Z,58
2024-01-19T14:17:29.369Z,58
2024-01-19T14:19:29.469Z,58
2024-01-19T14:21:29.367Z,58
2024-01-19T14:23:29.351Z,57
2024-01-19T14:27:29.736Z,57
2024-01-19T14:29:31.740Z,57
2024-01-19T14:33:29.448Z,61
2024-01-19T14:35:29.397Z,62
2024-01-19T14:39:29.590Z,62
2024-01-19T14:41:29.762Z,63
2024-01-19T14:43:29.686Z,65
2024-01-19T14:45:29.679Z,64
2024-01-19T14:47:29.354Z,65
2024-01-19T14:49:29.382Z,64
2024-01-19T14:55:29.848Z,63
2024-01-19T14:57:29.366Z,64
2024-01-19T14:59:29.404Z,66
2024-01-19T15:01:29.588Z,65
2024-01-19T15:03:29.838Z,65
2024-01-19T15:07:29.861Z,65
2024-01-19T15:09:29.366Z,65
2024-01-19T15:13:29.403Z,65
2024-01-19T15:17:29.980Z,66
2024-01-19T15:19:29.459Z,66
2024-01-19T15:21:29.361Z,66
2024-01-19T15:29:29.343Z,67
2024-01-19T15:31:29.552Z,68
2024-01-19T15:35:29.335Z,69
2024-01-19T15:37:29.373Z,69
2024-01-19T15:39:29.326Z,70
2024-01-19T15:43:29.585Z,71
2024-01-19T15:45:29.433Z,72
2024-01-19T15:49:29.390Z,71
2024-01-19T15:51:29.347Z,71
2024-01-19T15:53:29.866Z,72
2024-01-19T15:57:29.372Z,71
2024-01-19T15:59:29.314Z,71
2024-01-19T16:01:29.362Z,71
2024-01-19T16:03:29.360Z,72
2024-01-19T16:05:29.575Z,71
2024-01-19T16:07:29.620Z,71
2024-01-19T16:11:29.372Z,73
2024-01-19T16:13:29.386Z,74
2024-01-19T16:15:29.377Z,75
2024-01-19T16:17:29.381Z,75
2024-01-19T16:19:29.390Z,74
2024-01-19T16:21:29.406Z,74
2024-01-19T16:27:28.089Z,71
2024-01-19T16:29:28.084Z,72
2024-01-19T16:31:28.076Z,71
2024-01-19T16:33:28.098Z,73
2024-01-19T16:35:30.903Z,73
2024-01-19T16:37:28.164Z,75
2024-01-19T16:39:28.050Z,74
2024-01-19T16:41:28.152Z,75
2024-01-19T16:43:28.136Z,75
2024-01-19T16:45:28.102Z,75
2024-01-19T16:47:28.096Z,76
2024-01-19T16:49:28.105Z,76
2024-01-19T16:51:28.206Z,78
2024-01-19T16:53:28.138Z,79
2024-01-19T16:59:28.098Z,78
2024-01-19T17:01:28.118Z,77
2024-01-19T17:03:28.111Z,78
2024-01-19T17:05:28.194Z,78
2024-01-19T17:07:28.047Z,78
2024-01-19T17:11:28.104Z,79
2024-01-19T17:13:28.129Z,79
2024-01-19T17:15:28.091Z,79
2024-01-19T17:17:28.141Z,79
2024-01-19T17:19:28.078Z,79
2024-01-19T17:21:28.291Z,79
2024-01-19T17:23:28.093Z,79
2024-01-19T17:25:28.143Z,79
2024-01-19T17:37:13.183Z,81
2024-01-19T17:47:11.932Z,81
2024-01-19T17:53:11.401Z,81
2024-01-19T17:55:10.125Z,81
2024-01-19T17:59:13.557Z,81
2024-01-19T18:01:10.678Z,81
2024-01-19T18:03:13.109Z,81
2024-01-19T18:05:11.453Z,81
2024-01-19T18:09:12.663Z,81
2024-01-19T18:13:10.397Z,82
2024-01-19T18:15:13.047Z,82
2024-01-19T18:17:10.079Z,82
2024-01-19T18:19:13.233Z,81
2024-01-19T18:23:13.483Z,82
2024-01-19T18:25:10.135Z,82
2024-01-19T18:31:10.841Z,82
2024-01-19T18:33:13.241Z,82
2024-01-19T18:35:10.699Z,82
2024-01-19T18:37:12.569Z,82
2024-01-19T18:41:11.149Z,82
2024-01-19T18:43:11.594Z,82
2024-01-19T18:49:12.579Z,83
2024-01-19T18:51:10.068Z,83
2024-01-19T18:53:12.501Z,83
2024-01-19T18:59:13.079Z,83
2024-01-19T19:01:13.029Z,83
2024-01-19T19:03:10.901Z,83
2024-01-19T19:07:10.954Z,83
2024-01-19T19:09:09.588Z,83
2024-01-19T19:11:12.915Z,84
2024-01-19T19:13:11.867Z,84
2024-01-19T19:15:10.104Z,84
2024-01-19T19:21:12.485Z,83
2024-01-19T19:25:13.593Z,83
2024-01-19T19:29:10.428Z,82
2024-01-19T19:31:13.545Z,82
2024-01-19T19:33:10.001Z,83
2024-01-19T19:37:12.585Z,84
2024-01-19T19:39:12.035Z,83
2024-01-19T19:41:10.307Z,83
2024-01-19T19:43:13.528Z,83
2024-01-19T19:47:12.555Z,83
2024-01-19T19:49:13.368Z,83
2024-01-19T19:51:12.383Z,83
2024-01-19T19:57:10.675Z,83
2024-01-19T19:59:11.530Z,84
2024-01-19T20:03:12.029Z,84
2024-01-19T20:05:10.220Z,83
2024-01-19T20:07:14.829Z,84
2024-01-19T20:09:10.797Z,83
2024-01-19T20:11:13.449Z,84
2024-01-19T20:13:13.459Z,84
2024-01-19T20:19:13.655Z,84
2024-01-19T20:23:12.587Z,84
2024-01-19T20:27:10.113Z,84
2024-01-19T20:31:13.701Z,84
2024-01-19T20:33:11.950Z,84
2024-01-19T20:35:12.350Z,84
2024-01-19T20:43:13.963Z,83
2024-01-19T20:45:10.078Z,83
2024-01-19T20:47:13.469Z,84
2024-01-19T20:49:13.159Z,84
2024-01-19T20:57:13.466Z,84
2024-01-19T20:59:12.505Z,84
2024-01-19T21:03:10.262Z,84
2024-01-19T21:05:12.589Z,84
2024-01-19T21:11:12.630Z,84
2024-01-19T21:15:13.540Z,84
2024-01-19T21:19:12.464Z,84
2024-01-19T21:21:13.151Z,84
2024-01-19T21:23:11.171Z,84
2024-01-19T21:25:10.578Z,84
2024-01-19T21:31:11.192Z,84
2024-01-19T21:35:11.680Z,84
2024-01-19T21:37:10.228Z,85
2024-01-19T21:41:12.980Z,84
2024-01-19T21:43:10.597Z,84
2024-01-19T21:47:13.178Z,84
2024-01-19T21:49:13.202Z,84
2024-01-19T21:53:13.166Z,84
2024-01-19T21:55:12.433Z,84
2024-01-19T21:59:12.695Z,84
2024-01-19T22:01:10.441Z,84
2024-01-19T22:03:11.123Z,84
2024-01-19T22:09:12.957Z,84
2024-01-19T22:11:13.200Z,85
2024-01-19T22:15:13.140Z,84
2024-01-19T22:17:10.175Z,84
2024-01-19T22:23:13.323Z,84
2024-01-19T22:27:13.260Z,84
2024-01-19T22:29:13.452Z,84
2024-01-19T22:31:10.241Z,84
2024-01-19T22:33:11.458Z,84
2024-01-19T22:37:13.178Z,84
2024-01-19T22:41:13.470Z,84
2024-01-19T22:43:13.397Z,84
2024-01-19T22:45:11.448Z,84
2024-01-19T22:47:10.138Z,84
2024-01-19T22:53:11.553Z,84
2024-01-19T22:55:10.173Z,84
2024-01-19T22:57:11.800Z,84
2024-01-19T23:03:11.952Z,85
2024-01-19T23:05:12.042Z,84
2024-01-19T23:07:12.151Z,84
2024-01-19T23:13:12.797Z,84
2024-01-19T23:15:13.355Z,84
2024-01-19T23:17:10.688Z,85
2024-01-19T23:21:13.102Z,84
2024-01-19T23:23:12.788Z,84
2024-01-19T23:25:16.734Z,84
2024-01-19T23:27:19.440Z,84
2024-01-19T23:29:10.883Z,84
2024-01-19T23:31:16.483Z,84
2024-01-19T23:33:18.868Z,84
2024-01-19T23:35:11.158Z,84
2024-01-19T23:37:10.711Z,85
2024-01-19T23:41:15.917Z,85
2024-01-19T23:43:10.597Z,85
2024-01-19T23:45:11.731Z,84
2024-01-19T23:47:15.267Z,84
2024-01-19T23:49:10.436Z,84
2024-01-19T23:59:13.708Z,84
